Mary Turecamo — WDD8880 — position and weather

sailwx.info

Track history (hours):
 
Tides and Currents Weather Stations Pressure Air Temp Water Temp Dewpoint Dewpoint Depression Visibility Wind Speed Wind Dir Waves Ship Positions

Mary Turecamo

Owner: Moran Towing Corporation, New Canaan, CT. More information available from US FCC via Universal Licensing System and Coast Guard Vessel Documentation Center.

Last reported at 2018-Feb-19 03:57 UTC. Time now 2018-Feb-19 04:02 UTC.
Position N 40°38' W 074°08'.

Length 36 m; draft 6.5 m.

Type: Tow > 200 m length. MMSI: 367304010.

Date/timePositionNaut miles runAvg speedWind from/ knotsBaromVisibWave heightAir tempDewpointWater temp
2018-Feb-19 03:57N 40°38' W 074°08'0 0.0
2018-Feb-19 02:54N 40°38' W 074°08'1 2.5
2018-Feb-19 02:29N 40°39' W 074°09'2 3.2
2018-Feb-19 02:00N 40°40' W 074°08'0 0.9
2018-Feb-19 01:30N 40°41' W 074°09'2 4.4
2018-Feb-19 00:59N 40°39' W 074°08'0 0.6
2018-Feb-19 00:29N 40°38' W 074°08'0 0.0
2018-Feb-18 23:59N 40°38' W 074°08'0 0.0
2018-Feb-18 23:29N 40°38' W 074°08'0 0.0
2018-Feb-18 22:59N 40°38' W 074°08'0 0.0
2018-Feb-18 22:29N 40°38' W 074°08'0 0.0
2018-Feb-18 22:00N 40°38' W 074°08'1 1.9
2018-Feb-18 21:28N 40°39' W 074°07'0 0.0
2018-Feb-18 20:58N 40°39' W 074°07'0 0.0
2018-Feb-18 20:30N 40°39' W 074°07'0 0.0
2018-Feb-18 20:00N 40°39' W 074°07'0 0.0
2018-Feb-18 19:30N 40°39' W 074°07'0 0.0
2018-Feb-18 18:59N 40°39' W 074°07'1 2.0
2018-Feb-18 18:30N 40°38' W 074°08'0 0.0
2018-Feb-18 17:58N 40°38' W 074°08'3 6.2
2018-Feb-18 17:29N 40°38' W 074°12'5 8.0
2018-Feb-18 16:52N 40°33' W 074°13'10 2.0
2018-Feb-18 11:38N 40°29' W 074°02'1 5.7
2018-Feb-18 11:30N 40°29' W 074°01'41 6.7
2018-Feb-18 05:24N 39°48' W 073°58'5 6.9
2018-Feb-18 04:42N 39°44' W 074°00'1 7.1
2018-Feb-18 04:30N 39°42' W 074°01'5 7.2
2018-Feb-18 03:50N 39°38' W 074°04'2 7.3
2018-Feb-18 03:30N 39°36' W 074°05'61 5.6
2018-Feb-17 16:41N 39°01' W 075°09'0 1.0
2018-Feb-17 16:30N 39°01' W 075°10'4 6.5
2018-Feb-17 15:58N 39°04' W 075°11'4 7.7
2018-Feb-17 15:30N 39°07' W 075°13'4 7.1
2018-Feb-17 15:00N 39°10' W 075°16'3 6.3
2018-Feb-17 14:30N 39°13' W 075°18'3 6.3
2018-Feb-17 14:00N 39°16' W 075°20'3 6.7
2018-Feb-17 13:30N 39°18' W 075°23'4 7.1
2018-Feb-17 13:00N 39°21' W 075°26'4 8.1
2018-Feb-17 12:30N 39°24' W 075°30'4 8.5
2018-Feb-17 12:00N 39°27' W 075°33'4 8.9
2018-Feb-17 11:30N 39°31' W 075°33'3 6.2
2018-Feb-17 11:00N 39°33' W 075°36'4 8.4
2018-Feb-17 10:29N 39°33' W 075°42'31 6.4
2018-Feb-17 05:36N 39°14' W 076°14'1 6.8
2018-Feb-17 05:28N 39°13' W 076°15'3 7.0
2018-Feb-17 04:59N 39°11' W 076°17'10 6.9
2018-Feb-17 03:30N 39°12' W 076°31'2 4.8
2018-Feb-17 03:00N 39°14' W 076°32'0 0.1
2018-Feb-17 02:30N 39°14' W 076°32'0 0.0
2018-Feb-17 02:00N 39°14' W 076°32'0 0.0
2018-Feb-17 01:30N 39°14' W 076°32'0 0.1
2018-Feb-17 00:59N 39°14' W 076°32'0 0.0
2018-Feb-17 00:30N 39°14' W 076°32'0 0.0
2018-Feb-17 00:00N 39°14' W 076°32'0 0.0
2018-Feb-16 23:30N 39°14' W 076°32'0 0.0
2018-Feb-16 23:00N 39°14' W 076°32'0 0.0
2018-Feb-16 22:30N 39°14' W 076°32'0 0.0
2018-Feb-16 21:59N 39°14' W 076°32'0 0.0
2018-Feb-16 21:30N 39°14' W 076°32'0 0.0
2018-Feb-16 20:59N 39°14' W 076°32'0 0.7
2018-Feb-16 20:31N 39°14' W 076°32'4 7.2
2018-Feb-16 20:01N 39°11' W 076°29'4 7.9
2018-Feb-16 19:31N 39°09' W 076°25'4 7.6
2018-Feb-16 19:01N 39°05' W 076°24'4 7.8
2018-Feb-16 18:31N 39°01' W 076°23'4 7.4
2018-Feb-16 18:01N 38°58' W 076°24'4 7.8
2018-Feb-16 17:30N 38°54' W 076°24'4 7.7
2018-Feb-16 17:00N 38°50' W 076°26'47 7.7
2018-Feb-16 10:55N 38°04' W 076°16'3 7.5
2018-Feb-16 10:29N 38°01' W 076°17'4 8.3
2018-Feb-16 09:59N 38°02' W 076°22'7 8.9
2018-Feb-16 09:10N 38°05' W 076°30'1 8.5
2018-Feb-16 09:00N 38°06' W 076°31'2 0.1
2018-Feb-15 07:29N 38°08' W 076°32'1 0.3
2018-Feb-15 03:27N 38°07' W 076°31'0 0.0
2018-Feb-14 21:12N 38°07' W 076°31'0 0.0
2018-Feb-14 20:48N 38°07' W 076°31'0 0.0
2018-Feb-14 20:30N 38°07' W 076°31'0 0.0
2018-Feb-14 19:57N 38°07' W 076°31'0 0.0
2018-Feb-14 19:30N 38°07' W 076°31'0 0.0
2018-Feb-14 18:36N 38°07' W 076°31'0 0.0
2018-Feb-14 18:30N 38°07' W 076°31'0 0.0
2018-Feb-14 06:30N 38°07' W 076°31'1 2.8
2018-Feb-14 06:00N 38°06' W 076°30'2 4.0
2018-Feb-14 05:28N 38°05' W 076°28'510.6
2018-Feb-14 05:00N 38°02' W 076°22'11 7.0
2018-Feb-14 03:28N 38°12' W 076°17'510.4
2018-Feb-14 02:58N 38°17' W 076°19'510.5
2018-Feb-14 02:29N 38°22' W 076°21'510.7
2018-Feb-14 02:00N 38°27' W 076°23'2310.2
2018-Feb-13 23:45N 38°50' W 076°25'310.3
2018-Feb-13 23:29N 38°52' W 076°24'710.2
2018-Feb-13 22:48N 38°59' W 076°23'17 9.2
2018-Feb-13 21:00N 39°14' W 076°14'5 9.5
2018-Feb-13 20:29N 39°19' W 076°13'5 9.8
2018-Feb-13 20:00N 39°22' W 076°08'510.3
2018-Feb-13 19:30N 39°25' W 076°02'5 9.8
2018-Feb-13 19:00N 39°28' W 075°58'611.1
2018-Feb-13 18:30N 39°31' W 075°52'5 9.0
2018-Feb-13 18:00N 39°32' W 075°47'5 9.9
2018-Feb-13 17:30N 39°33' W 075°40'5 9.8
2018-Feb-13 17:00N 39°34' W 075°34'4 7.2
2018-Feb-13 16:30N 39°30' W 075°33'5 9.2
2018-Feb-13 16:00N 39°26' W 075°32'5 9.4
2018-Feb-13 15:30N 39°22' W 075°28'510.1
2018-Feb-13 15:00N 39°18' W 075°23'510.2
2018-Feb-13 14:30N 39°15' W 075°19'5 9.9
2018-Feb-13 14:00N 39°10' W 075°16'5 9.5
2018-Feb-13 13:29N 39°06' W 075°12'61 7.1
2018-Feb-13 04:53N 39°37' W 074°04'4810.2
2018-Feb-13 00:11N 40°25' W 073°54'210.1
2018-Feb-13 00:00N 40°26' W 073°55'5 9.2
2018-Feb-12 23:30N 40°29' W 073°60'5 8.6
2018-Feb-12 22:56N 40°29' W 074°06'2 3.9
2018-Feb-12 22:20N 40°30' W 074°09'5 1.1
2018-Feb-12 17:46N 40°31' W 074°15'2 8.4
2018-Feb-12 17:30N 40°33' W 074°15'4 8.4
2018-Feb-12 17:00N 40°36' W 074°12'3 6.9
2018-Feb-12 16:30N 40°38' W 074°09'3 5.8
2018-Feb-12 16:00N 40°39' W 074°05'2 2.6
2018-Feb-12 15:07N 40°38' W 074°08'0 0.0
2018-Feb-12 14:58N 40°38' W 074°08'0 0.0
2018-Feb-12 14:28N 40°38' W 074°08'0 0.0
2018-Feb-12 13:43N 40°38' W 074°08'0 0.0
2018-Feb-12 10:58N 40°38' W 074°08'0 0.0
2018-Feb-12 10:30N 40°38' W 074°08'0 0.0
2018-Feb-12 10:00N 40°38' W 074°08'0 0.0
2018-Feb-12 09:25N 40°38' W 074°08'0 0.0
2018-Feb-12 09:00N 40°38' W 074°08'0 0.0
2018-Feb-12 08:30N 40°38' W 074°08'0 0.0
2018-Feb-12 08:00N 40°38' W 074°08'0 0.0
2018-Feb-12 07:30N 40°38' W 074°08'0 0.0
2018-Feb-12 07:00N 40°38' W 074°08'0 0.0
2018-Feb-12 06:30N 40°38' W 074°08'0 0.0
2018-Feb-12 05:59N 40°38' W 074°08'0 0.0
2018-Feb-12 05:30N 40°38' W 074°08'0 0.1
2018-Feb-12 05:00N 40°38' W 074°08'0 0.0
2018-Feb-12 04:30N 40°38' W 074°08'1 1.8
2018-Feb-12 03:56N 40°39' W 074°07'0 0.0
2018-Feb-12 03:26N 40°39' W 074°07'0 0.0
2018-Feb-12 02:50N 40°39' W 074°07'0 0.0
2018-Feb-12 02:20N 40°39' W 074°07'0 0.0
2018-Feb-12 01:53N 40°39' W 074°07'2 5.0
2018-Feb-12 01:30N 40°39' W 074°09'4 7.1
2018-Feb-12 00:59N 40°36' W 074°12'4 1.4
2018-Feb-11 22:08N 40°32' W 074°15'2 5.5
2018-Feb-11 21:43N 40°34' W 074°13'2 6.7
2018-Feb-11 21:30N 40°35' W 074°12'2 4.7
2018-Feb-11 21:00N 40°38' W 074°12'3 5.4
2018-Feb-11 20:30N 40°39' W 074°09'3 6.7
2018-Feb-11 20:00N 40°39' W 074°04'1 2.5
2018-Feb-11 19:31N 40°39' W 074°03'0 0.0
2018-Feb-11 18:59N 40°39' W 074°03'0 0.0
2018-Feb-11 18:29N 40°39' W 074°03'0 0.0
2018-Feb-11 17:59N 40°39' W 074°03'0 0.0
2018-Feb-11 17:29N 40°39' W 074°03'0 0.0
2018-Feb-11 16:59N 40°39' W 074°03'0 0.0
2018-Feb-11 16:29N 40°39' W 074°03'0 0.0
2018-Feb-11 15:59N 40°39' W 074°03'0 0.0
2018-Feb-11 15:29N 40°39' W 074°03'0 0.0
2018-Feb-11 14:59N 40°39' W 074°03'0 0.0
2018-Feb-11 14:30N 40°39' W 074°03'1 1.3
2018-Feb-11 14:01N 40°39' W 074°03'3 5.6
2018-Feb-11 13:30N 40°36' W 074°02'1 2.4
2018-Feb-11 13:00N 40°35' W 074°02'2 4.0
2018-Feb-11 12:29N 40°33' W 074°02'2 4.6
2018-Feb-11 11:59N 40°31' W 073°59'3 4.8
2018-Feb-11 11:24N 40°30' W 073°56'3 4.9
2018-Feb-11 10:52N 40°28' W 073°54'2 5.4
2018-Feb-11 10:28N 40°26' W 073°54'37 6.8
2018-Feb-11 04:58N 39°49' W 073°57'4 6.6
2018-Feb-11 04:26N 39°46' W 073°59'3 6.7
2018-Feb-11 03:57N 39°43' W 074°00'4 6.7
2018-Feb-11 03:20N 39°39' W 074°03'2 6.7
2018-Feb-11 02:59N 39°37' W 074°04'3 6.7
2018-Feb-11 02:29N 39°34' W 074°06'60 5.3
2018-Feb-10 15:18N 38°57' W 075°07'6 7.6
2018-Feb-10 14:29N 39°03' W 075°10'4 7.5
2018-Feb-10 14:00N 39°06' W 075°12'4 7.4
2018-Feb-10 13:30N 39°09' W 075°15'4 7.1
2018-Feb-10 13:00N 39°12' W 075°17'3 6.6
2018-Feb-10 12:30N 39°15' W 075°19'3 6.2
2018-Feb-10 12:00N 39°17' W 075°22'2 3.8
2018-Feb-10 11:30N 39°19' W 075°24'0 1.0
2018-Feb-10 11:00N 39°19' W 075°24'2 3.6
2018-Feb-10 10:30N 39°20' W 075°26'3 5.4
2018-Feb-10 10:00N 39°22' W 075°28'3 5.6
2018-Feb-10 09:30N 39°25' W 075°30'3 5.7
2018-Feb-10 09:00N 39°27' W 075°33'3 6.1
2018-Feb-10 08:30N 39°30' W 075°34'3 6.9
2018-Feb-10 08:00N 39°33' W 075°33'3 6.5
2018-Feb-10 07:30N 39°33' W 075°37'4 8.0
2018-Feb-10 07:00N 39°33' W 075°42'4 8.1
2018-Feb-10 06:30N 39°32' W 075°47'3 6.9
2018-Feb-10 06:00N 39°32' W 075°52'3 6.9
2018-Feb-10 05:30N 39°30' W 075°56'3 6.6
2018-Feb-10 05:00N 39°28' W 075°59'3 6.4
2018-Feb-10 04:30N 39°25' W 076°01'3 6.0
2018-Feb-10 04:00N 39°23' W 076°04'3 5.3
2018-Feb-10 03:29N 39°22' W 076°08'2 5.1
2018-Feb-10 03:00N 39°21' W 076°10'4 5.4
2018-Feb-10 02:14N 39°18' W 076°14'3 5.8
2018-Feb-10 01:40N 39°14' W 076°14'1 6.1
2018-Feb-10 01:30N 39°13' W 076°15'3 6.1
2018-Feb-10 01:01N 39°11' W 076°17'3 6.1
2018-Feb-10 00:31N 39°08' W 076°19'3 6.1
2018-Feb-10 00:00N 39°06' W 076°18'3 6.5
2018-Feb-09 23:31N 39°03' W 076°21'3 6.9
2018-Feb-09 23:00N 38°60' W 076°23'2 7.1
2018-Feb-09 22:46N 38°58' W 076°23'2 7.2
2018-Feb-09 22:31N 38°56' W 076°23'4 7.4
2018-Feb-09 22:00N 38°53' W 076°24'  
Track history (hours):
 
Tides and Currents Weather Stations Pressure Air Temp Water Temp Dewpoint Dewpoint Depression Visibility Wind Speed Wind Dir Waves Ship Positions

Mary Turecamo

Owner: Moran Towing Corporation, New Canaan, CT. More information available from US FCC via Universal Licensing System and Coast Guard Vessel Documentation Center.

Last reported at 2018-Feb-19 03:57 UTC. Time now 2018-Feb-19 04:02 UTC.
Position N 40°38' W 074°08'.

Length 36 m; draft 6.5 m.

Type: Tow > 200 m length. MMSI: 367304010.

Date/timePositionNaut miles runAvg speedWind from/ knotsBaromVisibWave heightAir tempDewpointWater temp
2018-Feb-19 03:57N 40°38' W 074°08'0 0.0
2018-Feb-19 02:54N 40°38' W 074°08'1 2.5
2018-Feb-19 02:29N 40°39' W 074°09'2 3.2
2018-Feb-19 02:00N 40°40' W 074°08'0 0.9
2018-Feb-19 01:30N 40°41' W 074°09'2 4.4
2018-Feb-19 00:59N 40°39' W 074°08'0 0.6
2018-Feb-19 00:29N 40°38' W 074°08'0 0.0
2018-Feb-18 23:59N 40°38' W 074°08'0 0.0
2018-Feb-18 23:29N 40°38' W 074°08'0 0.0
2018-Feb-18 22:59N 40°38' W 074°08'0 0.0
2018-Feb-18 22:29N 40°38' W 074°08'0 0.0
2018-Feb-18 22:00N 40°38' W 074°08'1 1.9
2018-Feb-18 21:28N 40°39' W 074°07'0 0.0
2018-Feb-18 20:58N 40°39' W 074°07'0 0.0
2018-Feb-18 20:30N 40°39' W 074°07'0 0.0
2018-Feb-18 20:00N 40°39' W 074°07'0 0.0
2018-Feb-18 19:30N 40°39' W 074°07'0 0.0
2018-Feb-18 18:59N 40°39' W 074°07'1 2.0
2018-Feb-18 18:30N 40°38' W 074°08'0 0.0
2018-Feb-18 17:58N 40°38' W 074°08'3 6.2
2018-Feb-18 17:29N 40°38' W 074°12'5 8.0
2018-Feb-18 16:52N 40°33' W 074°13'10 2.0
2018-Feb-18 11:38N 40°29' W 074°02'1 5.7
2018-Feb-18 11:30N 40°29' W 074°01'41 6.7
2018-Feb-18 05:24N 39°48' W 073°58'5 6.9
2018-Feb-18 04:42N 39°44' W 074°00'1 7.1
2018-Feb-18 04:30N 39°42' W 074°01'5 7.2
2018-Feb-18 03:50N 39°38' W 074°04'2 7.3
2018-Feb-18 03:30N 39°36' W 074°05'61 5.6
2018-Feb-17 16:41N 39°01' W 075°09'0 1.0
2018-Feb-17 16:30N 39°01' W 075°10'4 6.5
2018-Feb-17 15:58N 39°04' W 075°11'4 7.7
2018-Feb-17 15:30N 39°07' W 075°13'4 7.1
2018-Feb-17 15:00N 39°10' W 075°16'3 6.3
2018-Feb-17 14:30N 39°13' W 075°18'3 6.3
2018-Feb-17 14:00N 39°16' W 075°20'3 6.7
2018-Feb-17 13:30N 39°18' W 075°23'4 7.1
2018-Feb-17 13:00N 39°21' W 075°26'4 8.1
2018-Feb-17 12:30N 39°24' W 075°30'4 8.5
2018-Feb-17 12:00N 39°27' W 075°33'4 8.9
2018-Feb-17 11:30N 39°31' W 075°33'3 6.2
2018-Feb-17 11:00N 39°33' W 075°36'4 8.4
2018-Feb-17 10:29N 39°33' W 075°42'31 6.4
2018-Feb-17 05:36N 39°14' W 076°14'1 6.8
2018-Feb-17 05:28N 39°13' W 076°15'3 7.0
2018-Feb-17 04:59N 39°11' W 076°17'10 6.9
2018-Feb-17 03:30N 39°12' W 076°31'2 4.8
2018-Feb-17 03:00N 39°14' W 076°32'0 0.1
2018-Feb-17 02:30N 39°14' W 076°32'0 0.0
2018-Feb-17 02:00N 39°14' W 076°32'0 0.0
2018-Feb-17 01:30N 39°14' W 076°32'0 0.1
2018-Feb-17 00:59N 39°14' W 076°32'0 0.0
2018-Feb-17 00:30N 39°14' W 076°32'0 0.0
2018-Feb-17 00:00N 39°14' W 076°32'0 0.0
2018-Feb-16 23:30N 39°14' W 076°32'0 0.0
2018-Feb-16 23:00N 39°14' W 076°32'0 0.0
2018-Feb-16 22:30N 39°14' W 076°32'0 0.0
2018-Feb-16 21:59N 39°14' W 076°32'0 0.0
2018-Feb-16 21:30N 39°14' W 076°32'0 0.0
2018-Feb-16 20:59N 39°14' W 076°32'0 0.7
2018-Feb-16 20:31N 39°14' W 076°32'4 7.2
2018-Feb-16 20:01N 39°11' W 076°29'4 7.9
2018-Feb-16 19:31N 39°09' W 076°25'4 7.6
2018-Feb-16 19:01N 39°05' W 076°24'4 7.8
2018-Feb-16 18:31N 39°01' W 076°23'4 7.4
2018-Feb-16 18:01N 38°58' W 076°24'4 7.8
2018-Feb-16 17:30N 38°54' W 076°24'4 7.7
2018-Feb-16 17:00N 38°50' W 076°26'47 7.7
2018-Feb-16 10:55N 38°04' W 076°16'3 7.5
2018-Feb-16 10:29N 38°01' W 076°17'4 8.3
2018-Feb-16 09:59N 38°02' W 076°22'7 8.9
2018-Feb-16 09:10N 38°05' W 076°30'1 8.5
2018-Feb-16 09:00N 38°06' W 076°31'2 0.1
2018-Feb-15 07:29N 38°08' W 076°32'1 0.3
2018-Feb-15 03:27N 38°07' W 076°31'0 0.0
2018-Feb-14 21:12N 38°07' W 076°31'0 0.0
2018-Feb-14 20:48N 38°07' W 076°31'0 0.0
2018-Feb-14 20:30N 38°07' W 076°31'0 0.0
2018-Feb-14 19:57N 38°07' W 076°31'0 0.0
2018-Feb-14 19:30N 38°07' W 076°31'0 0.0
2018-Feb-14 18:36N 38°07' W 076°31'0 0.0
2018-Feb-14 18:30N 38°07' W 076°31'0 0.0
2018-Feb-14 06:30N 38°07' W 076°31'1 2.8
2018-Feb-14 06:00N 38°06' W 076°30'2 4.0
2018-Feb-14 05:28N 38°05' W 076°28'510.6
2018-Feb-14 05:00N 38°02' W 076°22'11 7.0
2018-Feb-14 03:28N 38°12' W 076°17'510.4
2018-Feb-14 02:58N 38°17' W 076°19'510.5
2018-Feb-14 02:29N 38°22' W 076°21'510.7
2018-Feb-14 02:00N 38°27' W 076°23'2310.2
2018-Feb-13 23:45N 38°50' W 076°25'310.3
2018-Feb-13 23:29N 38°52' W 076°24'710.2
2018-Feb-13 22:48N 38°59' W 076°23'17 9.2
2018-Feb-13 21:00N 39°14' W 076°14'5 9.5
2018-Feb-13 20:29N 39°19' W 076°13'5 9.8
2018-Feb-13 20:00N 39°22' W 076°08'510.3
2018-Feb-13 19:30N 39°25' W 076°02'5 9.8
2018-Feb-13 19:00N 39°28' W 075°58'611.1
2018-Feb-13 18:30N 39°31' W 075°52'5 9.0
2018-Feb-13 18:00N 39°32' W 075°47'5 9.9
2018-Feb-13 17:30N 39°33' W 075°40'5 9.8
2018-Feb-13 17:00N 39°34' W 075°34'4 7.2
2018-Feb-13 16:30N 39°30' W 075°33'5 9.2
2018-Feb-13 16:00N 39°26' W 075°32'5 9.4
2018-Feb-13 15:30N 39°22' W 075°28'510.1
2018-Feb-13 15:00N 39°18' W 075°23'510.2
2018-Feb-13 14:30N 39°15' W 075°19'5 9.9
2018-Feb-13 14:00N 39°10' W 075°16'5 9.5
2018-Feb-13 13:29N 39°06' W 075°12'61 7.1
2018-Feb-13 04:53N 39°37' W 074°04'4810.2
2018-Feb-13 00:11N 40°25' W 073°54'210.1
2018-Feb-13 00:00N 40°26' W 073°55'5 9.2
2018-Feb-12 23:30N 40°29' W 073°60'5 8.6
2018-Feb-12 22:56N 40°29' W 074°06'2 3.9
2018-Feb-12 22:20N 40°30' W 074°09'5 1.1
2018-Feb-12 17:46N 40°31' W 074°15'2 8.4
2018-Feb-12 17:30N 40°33' W 074°15'4 8.4
2018-Feb-12 17:00N 40°36' W 074°12'3 6.9
2018-Feb-12 16:30N 40°38' W 074°09'3 5.8
2018-Feb-12 16:00N 40°39' W 074°05'2 2.6
2018-Feb-12 15:07N 40°38' W 074°08'0 0.0
2018-Feb-12 14:58N 40°38' W 074°08'0 0.0
2018-Feb-12 14:28N 40°38' W 074°08'0 0.0
2018-Feb-12 13:43N 40°38' W 074°08'0 0.0
2018-Feb-12 10:58N 40°38' W 074°08'0 0.0
2018-Feb-12 10:30N 40°38' W 074°08'0 0.0
2018-Feb-12 10:00N 40°38' W 074°08'0 0.0
2018-Feb-12 09:25N 40°38' W 074°08'0 0.0
2018-Feb-12 09:00N 40°38' W 074°08'0 0.0
2018-Feb-12 08:30N 40°38' W 074°08'0 0.0
2018-Feb-12 08:00N 40°38' W 074°08'0 0.0
2018-Feb-12 07:30N 40°38' W 074°08'0 0.0
2018-Feb-12 07:00N 40°38' W 074°08'0 0.0
2018-Feb-12 06:30N 40°38' W 074°08'0 0.0
2018-Feb-12 05:59N 40°38' W 074°08'0 0.0
2018-Feb-12 05:30N 40°38' W 074°08'0 0.1
2018-Feb-12 05:00N 40°38' W 074°08'0 0.0
2018-Feb-12 04:30N 40°38' W 074°08'1 1.8
2018-Feb-12 03:56N 40°39' W 074°07'0 0.0
2018-Feb-12 03:26N 40°39' W 074°07'0 0.0
2018-Feb-12 02:50N 40°39' W 074°07'0 0.0
2018-Feb-12 02:20N 40°39' W 074°07'0 0.0
2018-Feb-12 01:53N 40°39' W 074°07'2 5.0
2018-Feb-12 01:30N 40°39' W 074°09'4 7.1
2018-Feb-12 00:59N 40°36' W 074°12'4 1.4
2018-Feb-11 22:08N 40°32' W 074°15'2 5.5
2018-Feb-11 21:43N 40°34' W 074°13'2 6.7
2018-Feb-11 21:30N 40°35' W 074°12'2 4.7
2018-Feb-11 21:00N 40°38' W 074°12'3 5.4
2018-Feb-11 20:30N 40°39' W 074°09'3 6.7
2018-Feb-11 20:00N 40°39' W 074°04'1 2.5
2018-Feb-11 19:31N 40°39' W 074°03'0 0.0
2018-Feb-11 18:59N 40°39' W 074°03'0 0.0
2018-Feb-11 18:29N 40°39' W 074°03'0 0.0
2018-Feb-11 17:59N 40°39' W 074°03'0 0.0
2018-Feb-11 17:29N 40°39' W 074°03'0 0.0
2018-Feb-11 16:59N 40°39' W 074°03'0 0.0
2018-Feb-11 16:29N 40°39' W 074°03'0 0.0
2018-Feb-11 15:59N 40°39' W 074°03'0 0.0
2018-Feb-11 15:29N 40°39' W 074°03'0 0.0
2018-Feb-11 14:59N 40°39' W 074°03'0 0.0
2018-Feb-11 14:30N 40°39' W 074°03'1 1.3
2018-Feb-11 14:01N 40°39' W 074°03'3 5.6
2018-Feb-11 13:30N 40°36' W 074°02'1 2.4
2018-Feb-11 13:00N 40°35' W 074°02'2 4.0
2018-Feb-11 12:29N 40°33' W 074°02'2 4.6
2018-Feb-11 11:59N 40°31' W 073°59'3 4.8
2018-Feb-11 11:24N 40°30' W 073°56'3 4.9
2018-Feb-11 10:52N 40°28' W 073°54'2 5.4
2018-Feb-11 10:28N 40°26' W 073°54'37 6.8
2018-Feb-11 04:58N 39°49' W 073°57'4 6.6
2018-Feb-11 04:26N 39°46' W 073°59'3 6.7
2018-Feb-11 03:57N 39°43' W 074°00'4 6.7
2018-Feb-11 03:20N 39°39' W 074°03'2 6.7
2018-Feb-11 02:59N 39°37' W 074°04'3 6.7
2018-Feb-11 02:29N 39°34' W 074°06'60 5.3
2018-Feb-10 15:18N 38°57' W 075°07'6 7.6
2018-Feb-10 14:29N 39°03' W 075°10'4 7.5
2018-Feb-10 14:00N 39°06' W 075°12'4 7.4
2018-Feb-10 13:30N 39°09' W 075°15'4 7.1
2018-Feb-10 13:00N 39°12' W 075°17'3 6.6
2018-Feb-10 12:30N 39°15' W 075°19'3 6.2
2018-Feb-10 12:00N 39°17' W 075°22'2 3.8
2018-Feb-10 11:30N 39°19' W 075°24'0 1.0
2018-Feb-10 11:00N 39°19' W 075°24'2 3.6
2018-Feb-10 10:30N 39°20' W 075°26'3 5.4
2018-Feb-10 10:00N 39°22' W 075°28'3 5.6
2018-Feb-10 09:30N 39°25' W 075°30'3 5.7
2018-Feb-10 09:00N 39°27' W 075°33'3 6.1
2018-Feb-10 08:30N 39°30' W 075°34'3 6.9
2018-Feb-10 08:00N 39°33' W 075°33'3 6.5
2018-Feb-10 07:30N 39°33' W 075°37'4 8.0
2018-Feb-10 07:00N 39°33' W 075°42'4 8.1
2018-Feb-10 06:30N 39°32' W 075°47'3 6.9
2018-Feb-10 06:00N 39°32' W 075°52'3 6.9
2018-Feb-10 05:30N 39°30' W 075°56'3 6.6
2018-Feb-10 05:00N 39°28' W 075°59'3 6.4
2018-Feb-10 04:30N 39°25' W 076°01'3 6.0
2018-Feb-10 04:00N 39°23' W 076°04'3 5.3
2018-Feb-10 03:29N 39°22' W 076°08'2 5.1
2018-Feb-10 03:00N 39°21' W 076°10'4 5.4
2018-Feb-10 02:14N 39°18' W 076°14'3 5.8
2018-Feb-10 01:40N 39°14' W 076°14'1 6.1
2018-Feb-10 01:30N 39°13' W 076°15'3 6.1
2018-Feb-10 01:01N 39°11' W 076°17'3 6.1
2018-Feb-10 00:31N 39°08' W 076°19'3 6.1
2018-Feb-10 00:00N 39°06' W 076°18'3 6.5
2018-Feb-09 23:31N 39°03' W 076°21'3 6.9
2018-Feb-09 23:00N 38°60' W 076°23'2 7.1
2018-Feb-09 22:46N 38°58' W 076°23'2 7.2
2018-Feb-09 22:31N 38°56' W 076°23'4 7.4
2018-Feb-09 22:00N 38°53' W 076°24'  

Dump ship's entire track history